createdAt,value
2022-12-25T00:02:07.598Z,1.60
2022-12-25T00:04:34.014Z,1.40
2022-12-25T00:07:00.544Z,1.52
2022-12-25T00:09:27.018Z,1.33
2022-12-25T00:11:53.448Z,1.55
2022-12-25T00:14:19.885Z,1.40
2022-12-25T00:16:46.338Z,1.33
2022-12-25T00:19:12.840Z,1.33
2022-12-25T00:21:39.289Z,1.40
2022-12-25T00:24:05.848Z,1.60
2022-12-25T00:26:32.306Z,1.48
2022-12-25T00:28:58.827Z,1.45
2022-12-25T00:31:25.718Z,1.38
2022-12-25T00:33:52.591Z,1.30
2022-12-25T00:36:20.080Z,1.58
2022-12-25T00:38:46.598Z,1.65
2022-12-25T00:41:17.262Z,1.70
2022-12-25T00:43:44.212Z,1.50
2022-12-25T00:46:11.959Z,1.35
2022-12-25T00:48:38.945Z,1.30
2022-12-25T00:51:06.921Z,1.40
2022-12-25T00:53:33.465Z,1.40
2022-12-25T00:56:00.990Z,1.42
2022-12-25T00:58:28.707Z,1.67
2022-12-25T01:00:56.272Z,1.10
2022-12-25T01:03:22.798Z,1.55
2022-12-25T01:05:56.734Z,1.35
2022-12-25T01:08:23.200Z,1.45
2022-12-25T01:11:00.101Z,1.60
2022-12-25T01:13:27.224Z,1.70
2022-12-25T01:15:54.435Z,1.58
2022-12-25T01:18:21.899Z,1.75
2022-12-25T01:20:48.363Z,1.50
2022-12-25T01:23:14.949Z,1.58
2022-12-25T01:25:41.550Z,1.60
2022-12-25T01:28:08.107Z,1.55
2022-12-25T01:30:35.425Z,1.63
2022-12-25T01:33:01.863Z,1.60
2022-12-25T01:35:28.226Z,1.52
2022-12-25T01:37:55.435Z,1.90
2022-12-25T01:40:21.898Z,1.60
2022-12-25T01:42:48.299Z,1.77
2022-12-25T01:45:33.796Z,1.98
2022-12-25T01:48:05.291Z,1.90
2022-12-25T01:50:32.204Z,2.20
2022-12-25T01:52:58.761Z,2.10
2022-12-25T01:55:25.820Z,1.83
2022-12-25T01:57:52.266Z,2.05
2022-12-25T02:00:18.830Z,1.63
2022-12-25T02:02:45.600Z,2.00
2022-12-25T02:05:15.699Z,1.70
2022-12-25T02:07:42.352Z,1.77
2022-12-25T02:10:10.580Z,2.08
2022-12-25T02:12:37.430Z,2.10
2022-12-25T02:15:07.011Z,2.10
2022-12-25T02:20:18.388Z,2.33
2022-12-25T02:22:55.762Z,1.70
2022-12-25T02:25:40.201Z,1.75
2022-12-25T02:28:12.720Z,2.15
2022-12-25T02:30:42.073Z,1.90
2022-12-25T02:33:39.845Z,2.17
2022-12-25T02:36:08.952Z,1.88
2022-12-25T02:38:38.082Z,2.15
2022-12-25T02:41:11.937Z,2.15
2022-12-25T02:43:59.284Z,2.15
2022-12-25T02:46:44.768Z,2.33
2022-12-25T02:49:38.369Z,2.20
2022-12-25T02:52:25.567Z,2.28
2022-12-25T02:55:13.003Z,1.98
2022-12-25T02:58:02.228Z,2.50
2022-12-25T03:00:48.109Z,2.53
2022-12-25T03:03:33.270Z,3.10
2022-12-25T03:06:20.202Z,2.47
2022-12-25T03:08:47.721Z,2.50
2022-12-25T03:11:32.247Z,2.40
2022-12-25T03:14:21.586Z,2.08
2022-12-25T03:16:51.601Z,2.35
2022-12-25T03:19:37.333Z,2.55
2022-12-25T03:22:23.089Z,2.20
2022-12-25T03:25:08.505Z,1.98
2022-12-25T03:27:35.228Z,2.33
2022-12-25T03:30:20.362Z,2.35
2022-12-25T03:32:46.688Z,2.17
2022-12-25T03:35:25.551Z,2.47
2022-12-25T03:38:29.550Z,2.65
2022-12-25T03:41:17.444Z,2.65
2022-12-25T03:44:05.491Z,2.60
2022-12-25T03:46:52.783Z,3.10
2022-12-25T03:49:43.848Z,2.92
2022-12-25T03:52:30.587Z,2.67
2022-12-25T03:55:17.559Z,2.95
2022-12-25T03:58:02.855Z,2.67
2022-12-25T04:00:48.048Z,2.70
2022-12-25T04:03:33.135Z,3.38
2022-12-25T04:06:18.347Z,3.17
2022-12-25T04:09:10.861Z,2.92
2022-12-25T04:12:02.010Z,2.75
2022-12-25T04:14:47.438Z,2.90
2022-12-25T04:17:32.212Z,3.42
2022-12-25T04:20:17.157Z,3.28
2022-12-25T04:23:02.148Z,3.17
2022-12-25T04:25:46.937Z,3.13
2022-12-25T04:28:32.226Z,3.78
2022-12-25T04:31:20.229Z,3.13
2022-12-25T04:34:05.510Z,4.15
2022-12-25T04:36:31.944Z,3.45
2022-12-25T04:38:58.275Z,3.72
2022-12-25T04:41:24.683Z,3.67
2022-12-25T04:43:51.067Z,4.43
2022-12-25T04:46:17.642Z,3.80
2022-12-25T04:48:44.300Z,3.90
2022-12-25T04:51:18.301Z,3.92
2022-12-25T04:53:45.013Z,4.70
2022-12-25T04:56:11.685Z,4.63
2022-12-25T04:58:38.178Z,4.75
2022-12-25T05:01:04.624Z,4.45
2022-12-25T05:03:31.227Z,4.88
2022-12-25T05:05:57.845Z,5.82
2022-12-25T05:08:24.382Z,5.00
2022-12-25T05:10:50.723Z,5.40
2022-12-25T05:13:17.190Z,5.25
2022-12-25T05:15:43.964Z,4.82
2022-12-25T05:18:10.399Z,5.63
2022-12-25T05:20:40.240Z,6.63
2022-12-25T05:23:07.048Z,6.07
2022-12-25T05:25:33.434Z,5.90
2022-12-25T05:27:59.900Z,5.28
2022-12-25T05:30:26.311Z,6.03
2022-12-25T05:32:52.749Z,6.47
2022-12-25T05:35:19.114Z,5.75
2022-12-25T05:37:45.575Z,6.97
2022-12-25T05:40:11.994Z,6.45
2022-12-25T05:42:38.461Z,5.80
2022-12-25T05:45:05.041Z,6.80
2022-12-25T05:47:31.387Z,5.85
2022-12-25T05:49:57.741Z,5.80
2022-12-25T05:52:24.164Z,6.60
2022-12-25T05:54:50.529Z,6.65
2022-12-25T05:57:16.921Z,6.68
2022-12-25T05:59:43.277Z,6.55
2022-12-25T06:02:09.793Z,7.35
2022-12-25T06:04:36.353Z,7.30
2022-12-25T06:07:02.729Z,7.43
2022-12-25T06:09:29.054Z,7.22
2022-12-25T06:11:55.455Z,6.63
2022-12-25T06:14:21.859Z,7.40
2022-12-25T06:16:51.231Z,7.18
2022-12-25T06:19:18.378Z,6.55
2022-12-25T06:21:44.797Z,7.18
2022-12-25T06:24:16.123Z,6.90
2022-12-25T06:26:45.694Z,6.82
2022-12-25T06:29:12.100Z,7.35
2022-12-25T06:31:38.515Z,7.85
2022-12-25T06:34:05.172Z,6.95
2022-12-25T06:36:31.505Z,7.13
2022-12-25T06:39:00.402Z,7.35
2022-12-25T06:41:27.953Z,7.20
2022-12-25T06:43:55.741Z,6.85
2022-12-25T06:46:23.086Z,6.13
2022-12-25T06:48:49.938Z,6.63
2022-12-25T06:51:17.674Z,7.68
2022-12-25T06:53:44.109Z,6.80
2022-12-25T06:56:15.567Z,6.57
2022-12-25T06:58:45.841Z,7.57
2022-12-25T07:01:16.961Z,6.65
2022-12-25T07:03:44.169Z,6.22
2022-12-25T07:06:10.513Z,6.85
2022-12-25T07:08:37.104Z,7.03
2022-12-25T07:11:03.546Z,6.60
2022-12-25T07:13:29.977Z,7.22
2022-12-25T07:16:00.255Z,7.95
2022-12-25T07:18:27.111Z,7.25
2022-12-25T07:20:55.722Z,7.05
2022-12-25T07:23:23.015Z,6.97
2022-12-25T07:25:56.103Z,7.72
2022-12-25T07:28:22.859Z,7.10
2022-12-25T07:30:49.326Z,7.30
2022-12-25T07:33:16.118Z,7.38
2022-12-25T07:35:42.572Z,6.80
2022-12-25T07:38:09.080Z,6.90
2022-12-25T07:40:35.634Z,6.97
2022-12-25T07:43:02.093Z,7.43
2022-12-25T07:45:28.570Z,7.28
2022-12-25T07:47:55.295Z,5.72
2022-12-25T07:50:22.705Z,8.32
2022-12-25T07:52:49.072Z,7.78
2022-12-25T07:55:15.473Z,8.00
2022-12-25T07:57:41.856Z,7.40
2022-12-25T08:00:08.685Z,7.93
2022-12-25T08:02:35.251Z,6.60
2022-12-25T08:05:01.804Z,7.30
2022-12-25T08:07:28.522Z,6.70
2022-12-25T08:09:54.881Z,6.47
2022-12-25T08:12:21.248Z,6.20
2022-12-25T08:14:47.668Z,6.18
2022-12-25T08:17:14.165Z,6.95
2022-12-25T08:19:40.568Z,6.70
2022-12-25T08:22:07.109Z,8.82
2022-12-25T08:24:33.568Z,10.80
2022-12-25T08:27:00.001Z,9.23
2022-12-25T08:29:28.902Z,8.50
2022-12-25T08:31:55.864Z,8.45
2022-12-25T08:34:22.393Z,7.25
2022-12-25T08:36:48.731Z,7.03
2022-12-25T08:39:15.214Z,7.15
2022-12-25T08:41:41.898Z,6.78
2022-12-25T08:44:08.717Z,5.63
2022-12-25T08:46:36.689Z,5.88
2022-12-25T08:49:03.920Z,6.15
2022-12-25T08:51:30.353Z,6.97
2022-12-25T08:53:58.819Z,5.90
2022-12-25T08:56:25.479Z,6.40
2022-12-25T08:58:51.970Z,5.72
2022-12-25T09:01:18.544Z,5.72
2022-12-25T09:03:45.260Z,5.57
2022-12-25T09:06:12.945Z,6.07
2022-12-25T09:08:45.885Z,5.80
2022-12-25T09:11:14.830Z,6.20
2022-12-25T09:13:41.414Z,5.70
2022-12-25T09:16:08.950Z,5.95
2022-12-25T09:18:35.615Z,5.93
2022-12-25T09:21:03.669Z,6.18
2022-12-25T09:23:30.338Z,5.50
2022-12-25T09:25:58.681Z,6.50
2022-12-25T09:28:25.055Z,5.82
2022-12-25T09:30:52.020Z,6.45
2022-12-25T09:33:19.021Z,5.90
2022-12-25T09:35:52.629Z,6.47
2022-12-25T09:38:19.029Z,6.05
2022-12-25T09:40:45.540Z,5.35
2022-12-25T09:43:15.929Z,6.30
2022-12-25T09:45:42.782Z,6.90
2022-12-25T09:48:11.455Z,6.22
2022-12-25T09:50:37.811Z,6.13
2022-12-25T09:53:15.647Z,5.93
2022-12-25T09:56:08.304Z,5.80
2022-12-25T09:58:34.948Z,6.05
2022-12-25T10:01:21.724Z,5.75
2022-12-25T10:03:51.319Z,6.40
2022-12-25T10:08:56.513Z,5.70
2022-12-25T10:11:32.146Z,5.90
2022-12-25T10:14:17.298Z,5.80
2022-12-25T10:16:46.828Z,6.22
2022-12-25T10:21:42.725Z,5.45
2022-12-25T10:24:18.121Z,5.20
2022-12-25T10:26:44.832Z,5.65
2022-12-25T10:29:15.809Z,5.13
2022-12-25T10:31:45.234Z,4.63
2022-12-25T10:34:12.697Z,4.82
2022-12-25T10:36:39.624Z,4.35
2022-12-25T10:39:06.028Z,5.10
2022-12-25T10:42:05.004Z,4.63
2022-12-25T10:44:32.378Z,5.50
2022-12-25T10:46:59.749Z,5.13
2022-12-25T10:49:37.828Z,6.03
2022-12-25T10:52:16.904Z,5.20
2022-12-25T10:54:43.727Z,5.55
2022-12-25T10:57:10.204Z,6.18
2022-12-25T10:59:46.824Z,6.15
2022-12-25T11:02:15.839Z,5.95
2022-12-25T11:04:42.504Z,6.38
2022-12-25T11:07:15.103Z,6.18
2022-12-25T11:09:48.770Z,6.22
2022-12-25T11:12:17.927Z,6.78
2022-12-25T11:14:51.647Z,6.30
2022-12-25T11:17:21.713Z,5.95
2022-12-25T11:20:00.714Z,7.53
2022-12-25T11:22:28.843Z,8.60
2022-12-25T11:24:55.406Z,7.40
2022-12-25T11:27:28.834Z,7.18
2022-12-25T11:29:59.480Z,7.28
2022-12-25T11:32:31.345Z,7.85
2022-12-25T11:34:58.650Z,8.02
2022-12-25T11:37:25.115Z,7.05
2022-12-25T11:39:51.599Z,7.68
2022-12-25T11:42:34.568Z,6.85
2022-12-25T11:45:07.124Z,6.68
2022-12-25T11:47:40.105Z,5.88
2022-12-25T11:50:14.267Z,5.95
2022-12-25T11:52:42.443Z,5.90
2022-12-25T11:55:27.746Z,6.63
2022-12-25T11:58:00.299Z,5.28
2022-12-25T12:00:27.503Z,5.68
2022-12-25T12:03:17.191Z,5.65
2022-12-25T12:06:04.904Z,5.20
2022-12-25T12:08:32.282Z,5.72
2022-12-25T12:11:18.371Z,5.45
2022-12-25T12:13:53.599Z,5.15
2022-12-25T12:16:20.151Z,6.05
2022-12-25T12:18:50.557Z,6.35
2022-12-25T12:21:20.959Z,6.13
2022-12-25T12:23:47.293Z,5.43
2022-12-25T12:26:29.628Z,6.35
2022-12-25T12:28:59.874Z,5.55
2022-12-25T12:31:37.289Z,6.80
2022-12-25T12:34:03.850Z,5.95
2022-12-25T12:36:36.216Z,6.72
2022-12-25T12:39:05.199Z,6.72
2022-12-25T12:41:48.215Z,6.03
2022-12-25T12:44:15.852Z,5.70
2022-12-25T12:46:50.389Z,6.65
2022-12-25T12:49:16.890Z,5.85
2022-12-25T12:51:43.389Z,6.63
2022-12-25T12:54:20.589Z,5.93
2022-12-25T12:57:06.823Z,6.75
2022-12-25T12:59:35.933Z,5.63
2022-12-25T13:02:02.475Z,6.22
2022-12-25T13:04:43.934Z,6.43
2022-12-25T13:07:14.493Z,5.57
2022-12-25T13:09:40.803Z,5.97
2022-12-25T13:12:08.260Z,5.88
2022-12-25T13:14:35.536Z,5.70
2022-12-25T13:17:02.054Z,5.43
2022-12-25T13:19:29.202Z,6.63
2022-12-25T13:22:00.362Z,6.15
2022-12-25T13:24:27.975Z,6.03
2022-12-25T13:26:54.800Z,6.28
2022-12-25T13:29:35.695Z,5.18
2022-12-25T13:32:04.313Z,6.03
2022-12-25T13:34:31.878Z,6.20
2022-12-25T13:37:07.451Z,6.32
2022-12-25T13:39:34.723Z,6.13
2022-12-25T13:42:09.628Z,5.10
2022-12-25T13:44:36.033Z,5.78
2022-12-25T13:47:19.830Z,6.07
2022-12-25T13:49:46.706Z,5.47
2022-12-25T13:52:15.495Z,6.60
2022-12-25T13:54:53.767Z,8.18
2022-12-25T13:57:22.101Z,6.90
2022-12-25T13:59:48.432Z,5.97
2022-12-25T14:02:19.097Z,6.43
2022-12-25T14:04:45.778Z,6.55
2022-12-25T14:07:12.213Z,5.72
2022-12-25T14:09:40.023Z,5.65
2022-12-25T14:12:06.686Z,6.53
2022-12-25T14:14:33.183Z,5.97
2022-12-25T14:16:59.750Z,5.47
2022-12-25T14:19:33.332Z,6.18
2022-12-25T14:21:59.920Z,6.93
2022-12-25T14:24:27.290Z,6.97
2022-12-25T14:26:57.385Z,6.15
2022-12-25T14:29:28.367Z,6.53
2022-12-25T14:31:57.130Z,5.65
2022-12-25T14:34:24.833Z,4.93
2022-12-25T14:36:52.556Z,4.32
2022-12-25T14:39:36.550Z,5.15
2022-12-25T14:42:21.943Z,4.40
2022-12-25T14:45:07.050Z,4.72
2022-12-25T14:47:39.256Z,4.30
2022-12-25T14:50:15.942Z,4.60
2022-12-25T14:52:43.383Z,4.50
2022-12-25T14:55:17.965Z,3.67
2022-12-25T14:57:47.450Z,4.03
2022-12-25T15:02:43.378Z,3.53
2022-12-25T15:05:23.954Z,3.15
2022-12-25T15:07:58.488Z,2.88
2022-12-25T15:13:13.463Z,3.50
2022-12-25T15:15:42.112Z,3.22
2022-12-25T15:18:10.549Z,3.10
2022-12-25T15:20:36.962Z,3.30
2022-12-25T15:23:19.377Z,3.03
2022-12-25T15:25:47.556Z,2.90
2022-12-25T15:28:14.181Z,3.13
2022-12-25T15:30:40.720Z,3.03
2022-12-25T15:33:07.497Z,3.47
2022-12-25T15:35:34.417Z,3.72
2022-12-25T15:38:00.899Z,4.43
2022-12-25T15:40:27.309Z,4.20
2022-12-25T15:42:56.313Z,4.07
2022-12-25T15:47:49.604Z,3.80
2022-12-25T15:50:16.580Z,3.80
2022-12-25T15:52:43.106Z,3.55
2022-12-25T15:55:10.250Z,4.68
2022-12-25T15:57:37.795Z,3.90
2022-12-25T16:00:05.343Z,4.55
2022-12-25T16:02:32.031Z,3.05
2022-12-25T16:04:58.510Z,4.43
2022-12-25T16:07:25.848Z,3.75
2022-12-25T16:09:52.335Z,3.35
2022-12-25T16:12:19.097Z,3.60
2022-12-25T16:14:45.512Z,3.97
2022-12-25T16:17:13.778Z,3.70
2022-12-25T16:19:40.233Z,4.50
2022-12-25T16:22:13.445Z,4.13
2022-12-25T16:24:39.897Z,4.30
2022-12-25T16:27:06.461Z,4.75
2022-12-25T16:29:33.020Z,4.28
2022-12-25T16:31:59.484Z,4.38
2022-12-25T16:34:25.879Z,4.13
2022-12-25T16:36:52.378Z,4.30
2022-12-25T16:39:19.326Z,4.38
2022-12-25T16:41:45.834Z,4.03
2022-12-25T16:44:12.516Z,4.55
2022-12-25T16:46:39.785Z,4.18
2022-12-25T16:49:06.719Z,4.35
2022-12-25T16:51:33.250Z,3.60
2022-12-25T16:53:59.701Z,3.78
2022-12-25T16:56:28.384Z,3.80
2022-12-25T16:58:56.405Z,3.40
2022-12-25T17:01:23.483Z,3.63
2022-12-25T17:03:50.658Z,3.88
2022-12-25T17:06:19.957Z,4.32
2022-12-25T17:08:46.837Z,3.50
2022-12-25T17:11:13.329Z,3.70
2022-12-25T17:13:39.763Z,3.90
2022-12-25T17:16:17.257Z,3.80
2022-12-25T17:18:44.069Z,3.47
2022-12-25T17:21:10.590Z,3.75
2022-12-25T17:23:38.174Z,4.18
2022-12-25T17:26:05.401Z,4.85
2022-12-25T17:28:32.310Z,4.55
2022-12-25T17:31:02.353Z,4.53
2022-12-25T17:33:28.953Z,5.25
2022-12-25T17:36:01.855Z,5.10
2022-12-25T17:38:30.954Z,4.53
2022-12-25T17:40:58.107Z,5.35
2022-12-25T17:43:24.527Z,5.22
2022-12-25T17:45:51.030Z,5.00
2022-12-25T17:48:17.597Z,4.82
2022-12-25T17:50:44.268Z,5.20
2022-12-25T17:53:11.002Z,4.85
2022-12-25T17:55:38.873Z,5.75
2022-12-25T17:58:05.425Z,5.63
2022-12-25T18:00:32.003Z,5.28
2022-12-25T18:02:58.709Z,5.93
2022-12-25T18:05:25.223Z,6.00
2022-12-25T18:07:51.758Z,5.68
2022-12-25T18:10:18.213Z,6.50
2022-12-25T18:12:45.261Z,6.03
2022-12-25T18:15:12.101Z,6.05
2022-12-25T18:17:38.711Z,6.55
2022-12-25T18:20:06.193Z,7.53
2022-12-25T18:22:33.912Z,8.75
2022-12-25T18:25:00.383Z,7.20
2022-12-25T18:27:27.017Z,8.73
2022-12-25T18:29:53.641Z,8.45
2022-12-25T18:32:24.839Z,7.97
2022-12-25T18:34:54.625Z,7.82
2022-12-25T18:37:21.263Z,8.50
2022-12-25T18:39:47.689Z,8.23
2022-12-25T18:42:32.569Z,8.02
2022-12-25T18:44:58.947Z,7.50
2022-12-25T18:47:25.719Z,8.68
2022-12-25T18:49:53.020Z,8.43
2022-12-25T18:52:47.363Z,8.48
2022-12-25T18:55:06.404Z,8.50
2022-12-25T18:57:33.339Z,9.88
2022-12-25T19:00:00.148Z,10.27
2022-12-25T19:02:27.104Z,10.68
2022-12-25T19:04:53.863Z,11.50
2022-12-25T19:07:22.651Z,11.70
2022-12-25T19:09:50.133Z,11.43
2022-12-25T19:12:17.817Z,12.13
2022-12-25T19:14:48.489Z,11.77
2022-12-25T19:17:15.698Z,12.85
2022-12-25T19:19:42.221Z,11.65
2022-12-25T19:22:08.953Z,12.98
2022-12-25T19:24:35.963Z,13.95
2022-12-25T19:27:02.543Z,13.25
2022-12-25T19:29:29.240Z,13.43
2022-12-25T19:31:56.274Z,12.43
2022-12-25T19:34:22.922Z,14.60
2022-12-25T19:36:49.370Z,11.52
2022-12-25T19:39:15.856Z,12.13
2022-12-25T19:41:42.256Z,12.02
2022-12-25T19:44:08.868Z,10.63
2022-12-25T19:46:36.422Z,10.32
2022-12-25T19:49:07.672Z,11.10
2022-12-25T19:51:36.437Z,10.43
2022-12-25T19:54:03.526Z,11.43
2022-12-25T19:56:30.287Z,11.00
2022-12-25T19:58:57.452Z,8.68
2022-12-25T20:01:25.341Z,10.10
2022-12-25T20:03:51.967Z,10.75
2022-12-25T20:06:21.861Z,8.80
2022-12-25T20:08:49.449Z,9.77
2022-12-25T20:11:16.515Z,9.45
2022-12-25T20:13:43.238Z,9.02
2022-12-25T20:16:10.396Z,9.27
2022-12-25T20:18:38.270Z,9.25
2022-12-25T20:21:06.372Z,8.80
2022-12-25T20:23:32.828Z,10.00
2022-12-25T20:26:01.163Z,8.45
2022-12-25T20:28:28.514Z,8.20
2022-12-25T20:30:55.299Z,10.02
2022-12-25T20:33:21.786Z,9.20
2022-12-25T20:35:48.625Z,9.32
2022-12-25T20:38:15.229Z,9.45
2022-12-25T20:41:24.467Z,9.00
2022-12-25T20:43:28.228Z,9.50
2022-12-25T20:45:54.933Z,8.98
2022-12-25T20:48:21.877Z,8.85
2022-12-25T20:50:48.513Z,9.50
2022-12-25T20:53:15.100Z,9.77
2022-12-25T20:55:48.748Z,9.20
2022-12-25T20:58:16.712Z,8.77
2022-12-25T21:00:45.665Z,8.75
2022-12-25T21:03:12.441Z,9.75
2022-12-25T21:05:49.786Z,8.32
2022-12-25T21:08:17.216Z,8.73
2022-12-25T21:10:46.357Z,9.43
2022-12-25T21:13:13.232Z,8.82
2022-12-25T21:15:43.316Z,8.50
2022-12-25T21:18:09.798Z,9.35
2022-12-25T21:20:36.336Z,8.85
2022-12-25T21:23:03.119Z,9.57
2022-12-25T21:25:29.601Z,8.73
2022-12-25T21:27:56.106Z,8.65
2022-12-25T21:30:25.993Z,8.23
2022-12-25T21:33:11.219Z,8.85
2022-12-25T21:35:37.866Z,8.70
2022-12-25T21:38:04.627Z,8.90
2022-12-25T21:40:33.618Z,8.88
2022-12-25T21:43:01.250Z,9.45
2022-12-25T21:45:35.727Z,11.27
2022-12-25T21:48:03.604Z,9.85
2022-12-25T21:50:49.066Z,10.07
2022-12-25T21:53:19.504Z,9.13
2022-12-25T21:55:59.001Z,9.52
2022-12-25T22:00:52.003Z,8.77
2022-12-25T22:03:18.694Z,8.57
2022-12-25T22:06:07.357Z,9.02
2022-12-25T22:08:34.210Z,7.80
2022-12-25T22:11:04.321Z,8.73
2022-12-25T22:13:49.430Z,7.85
2022-12-25T22:16:34.369Z,7.85
2022-12-25T22:19:19.423Z,7.68
2022-12-25T22:21:45.861Z,6.28
2022-12-25T22:24:12.367Z,6.45
2022-12-25T22:26:38.819Z,6.45
2022-12-25T22:29:05.301Z,6.68
2022-12-25T22:31:31.914Z,6.15
2022-12-25T22:33:58.539Z,6.20
2022-12-25T22:36:24.953Z,6.47
2022-12-25T22:38:51.372Z,6.32
2022-12-25T22:41:17.930Z,5.45
2022-12-25T22:44:15.877Z,5.82
2022-12-25T22:46:30.816Z,6.35
2022-12-25T22:48:57.312Z,5.35
2022-12-25T22:51:23.973Z,5.13
2022-12-25T22:53:50.454Z,5.00
2022-12-25T22:56:16.898Z,4.88
2022-12-25T22:58:43.427Z,5.07
2022-12-25T23:01:10.230Z,4.43
2022-12-25T23:03:36.903Z,4.15
2022-12-25T23:06:03.784Z,4.43
2022-12-25T23:08:30.311Z,3.58
2022-12-25T23:11:01.321Z,3.97
2022-12-25T23:13:46.385Z,4.20
2022-12-25T23:16:13.436Z,3.85
2022-12-25T23:18:58.636Z,4.13
2022-12-25T23:21:44.939Z,3.63
2022-12-25T23:24:30.181Z,3.75
2022-12-25T23:26:57.288Z,3.15
2022-12-25T23:29:35.796Z,3.53
2022-12-25T23:32:08.346Z,3.63
2022-12-25T23:34:35.882Z,3.40
2022-12-25T23:37:02.441Z,3.83
2022-12-25T23:39:28.854Z,3.25
2022-12-25T23:41:55.509Z,3.42
2022-12-25T23:44:21.899Z,3.65
2022-12-25T23:46:52.634Z,3.22
2022-12-25T23:49:20.710Z,3.72
2022-12-25T23:51:47.315Z,2.97
2022-12-25T23:54:15.837Z,2.90
2022-12-25T23:56:42.724Z,3.05
2022-12-25T23:59:09.553Z,2.92
